Time;durP1;ratioP1;P1;durP2;ratioP2;P2;SDS_P1;SDS_P2;PMS_P1;PMS_P2;Temp;Humidity;BMP_temperature;BMP_pressure;BME280_temperature;BME280_humidity;BME280_pressure;Samples;Min_cycle;Max_cycle;Signal;HPM_P1;HPM_P2
2022/08/01 00:02:37;;;;;;;2.33;1.90;;;26.40;55.60;;;;;;10053074;28;20202;-65
2022/08/01 00:07:28;;;;;;;2.33;1.95;;;26.30;55.90;;;;;;10065394;28;20033;-65
2022/08/01 00:12:18;;;;;;;4.32;2.17;;;26.20;56.40;;;;;;10058937;28;20375;-65
2022/08/01 00:17:09;;;;;;;3.17;2.00;;;26.10;57.00;;;;;;10059307;28;20393;-65
2022/08/01 00:22:00;;;;;;;5.03;1.98;;;26.00;57.60;;;;;;10064699;28;20333;-64
2022/08/01 00:26:50;;;;;;;1.90;1.70;;;25.90;57.90;;;;;;10078919;28;20083;-65
2022/08/01 00:31:41;;;;;;;2.47;1.50;;;26.10;57.70;;;;;;10067992;28;20052;-65
2022/08/01 00:36:32;;;;;;;2.00;1.38;;;26.10;57.80;;;;;;10083545;28;20038;-65
2022/08/01 00:41:22;;;;;;;2.63;1.75;;;26.00;58.10;;;;;;10065995;28;20217;-65
2022/08/01 00:46:13;;;;;;;4.82;1.70;;;25.90;58.60;;;;;;10056089;28;20380;-65
2022/08/01 00:51:04;;;;;;;4.03;1.55;;;25.80;58.90;;;;;;10076150;28;20041;-65
2022/08/01 00:55:56;;;;;;;3.25;1.60;;;25.90;59.00;;;;;;10079186;28;20076;-64
2022/08/01 01:00:47;;;;;;;1.80;1.50;;;25.90;59.00;;;;;;10074487;28;20030;-64
2022/08/01 01:05:51;;;;;;;3.28;1.70;;;25.80;59.30;;;;;;10074460;28;20450;-65
2022/08/01 01:10:53;;;;;;;2.93;1.40;;;25.80;59.70;;;;;;10063979;28;20232;-64
2022/08/01 01:15:51;;;;;;;1.80;1.50;;;25.90;59.70;;;;;;10057970;28;20504;-64
2022/08/01 01:20:46;;;;;;;3.20;1.80;;;25.80;59.80;;;;;;10073120;28;20140;-63
2022/08/01 01:25:36;;;;;;;1.58;1.30;;;25.80;59.70;;;;;;10066647;28;20127;-64
2022/08/01 01:30:29;;;;;;;3.90;1.42;;;25.90;59.70;;;;;;10070764;28;20057;-64
2022/08/01 01:35:24;;;;;;;3.58;1.25;;;25.80;60.00;;;;;;10073970;28;20240;-65
2022/08/01 01:40:17;;;;;;;2.45;1.40;;;26.10;59.80;;;;;;10078209;28;20037;-64
2022/08/01 01:45:08;;;;;;;1.58;1.25;;;25.90;59.90;;;;;;10053831;28;20321;-64
2022/08/01 01:50:01;;;;;;;2.85;1.60;;;25.80;60.40;;;;;;10062598;28;20037;-65
2022/08/01 01:54:54;;;;;;;1.73;1.40;;;25.70;60.50;;;;;;10068479;28;20315;-64
2022/08/01 01:59:46;;;;;;;2.67;1.80;;;25.80;60.40;;;;;;10059908;28;20180;-64
2022/08/01 02:04:42;;;;;;;2.17;1.15;;;25.70;60.60;;;;;;10063542;28;20022;-65
2022/08/01 02:09:35;;;;;;;1.67;1.20;;;25.60;61.00;;;;;;10077031;28;20052;-65
2022/08/01 02:14:27;;;;;;;3.22;1.58;;;25.70;61.00;;;;;;10085531;28;20041;-65
2022/08/01 02:19:19;;;;;;;2.30;1.42;;;25.60;61.10;;;;;;10077780;28;20034;-64
2022/08/01 02:24:20;;;;;;;2.42;1.63;;;25.60;61.30;;;;;;10052856;28;20041;-64
2022/08/01 02:29:19;;;;;;;3.25;1.20;;;25.60;61.50;;;;;;10057326;28;20061;-64
2022/08/01 02:34:15;;;;;;;2.13;1.25;;;25.70;61.30;;;;;;10060200;28;20046;-64
2022/08/01 02:39:11;;;;;;;2.90;1.85;;;25.70;61.40;;;;;;10067640;28;20483;-64
2022/08/01 02:44:05;;;;;;;2.45;1.40;;;25.60;61.60;;;;;;10061407;28;20038;-64
2022/08/01 02:48:58;;;;;;;2.13;1.50;;;25.70;61.70;;;;;;10068696;28;20029;-64
2022/08/01 02:53:51;;;;;;;3.05;1.35;;;25.70;61.60;;;;;;10069873;28;20313;-64
2022/08/01 02:58:44;;;;;;;4.28;1.95;;;25.60;62.00;;;;;;10071780;28;20025;-64
2022/08/01 03:03:37;;;;;;;2.63;2.13;;;25.60;62.00;;;;;;10071147;28;20519;-65
2022/08/01 03:08:30;;;;;;;2.53;1.45;;;25.60;62.20;;;;;;10067654;28;20018;-65
2022/08/01 03:13:21;;;;;;;3.30;1.55;;;25.60;62.20;;;;;;10051565;28;20073;-64
2022/08/01 03:18:15;;;;;;;1.67;1.40;;;25.50;62.30;;;;;;10063028;28;20109;-64
2022/08/01 03:23:08;;;;;;;1.77;1.63;;;25.30;62.50;;;;;;10054521;28;20108;-64
2022/08/01 03:28:03;;;;;;;1.80;1.33;;;25.40;62.50;;;;;;10067367;28;20403;-63
2022/08/01 03:32:53;;;;;;;1.60;1.35;;;25.50;62.60;;;;;;10070210;28;20052;-64
2022/08/01 03:37:47;;;;;;;1.98;1.52;;;25.40;62.70;;;;;;10071812;28;20123;-64
2022/08/01 03:42:44;;;;;;;3.70;1.88;;;25.40;62.90;;;;;;10072825;28;20020;-64
2022/08/01 03:47:35;;;;;;;2.75;1.73;;;25.30;63.20;;;;;;10070182;28;20033;-64
2022/08/01 03:52:29;;;;;;;2.10;1.85;;;25.20;63.30;;;;;;10062880;28;20030;-64
2022/08/01 03:57:20;;;;;;;4.55;1.83;;;25.20;63.40;;;;;;10082007;28;20029;-64
2022/08/01 04:02:13;;;;;;;2.72;1.88;;;25.10;63.80;;;;;;10072395;28;20021;-64
2022/08/01 04:07:06;;;;;;;2.28;1.88;;;24.90;64.10;;;;;;10071183;28;20042;-64
2022/08/01 04:11:59;;;;;;;2.40;2.20;;;24.90;64.50;;;;;;10073109;28;20045;-65
2022/08/01 04:16:49;;;;;;;4.75;2.00;;;24.90;64.60;;;;;;10070172;28;20029;-65
2022/08/01 04:21:40;;;;;;;3.55;2.00;;;24.90;64.60;;;;;;10064509;28;20245;-65
2022/08/01 04:26:34;;;;;;;2.50;2.08;;;24.70;65.00;;;;;;10078321;28;20087;-65
2022/08/01 04:31:26;;;;;;;2.58;1.90;;;24.80;65.20;;;;;;10078807;28;20275;-65
2022/08/01 04:36:22;;;;;;;2.65;1.90;;;24.90;65.30;;;;;;10074192;28;20025;-65
2022/08/01 04:41:14;;;;;;;2.65;1.65;;;24.90;65.30;;;;;;10088573;28;20041;-65
2022/08/01 04:46:07;;;;;;;2.95;2.05;;;24.70;65.40;;;;;;10070058;28;20035;-65
2022/08/01 04:50:57;;;;;;;2.78;2.05;;;24.70;65.40;;;;;;10074483;28;20232;-65
2022/08/01 04:55:48;;;;;;;2.15;1.95;;;24.80;65.50;;;;;;10066369;28;20028;-64
2022/08/01 05:00:39;;;;;;;4.65;1.77;;;25.00;65.40;;;;;;10080446;28;20030;-65
2022/08/01 05:05:30;;;;;;;2.50;1.77;;;25.10;65.20;;;;;;10068757;28;20052;-64
2022/08/01 05:10:21;;;;;;;3.22;2.15;;;25.10;65.20;;;;;;10061020;28;20234;-64
2022/08/01 05:15:11;;;;;;;2.28;2.00;;;25.00;65.40;;;;;;10075504;28;20046;-64
2022/08/01 05:20:02;;;;;;;3.80;2.10;;;24.90;65.60;;;;;;10059219;28;20034;-65
2022/08/01 05:24:53;;;;;;;5.55;2.33;;;24.90;65.80;;;;;;10061507;28;20232;-64
2022/08/01 05:29:44;;;;;;;2.33;1.85;;;25.00;65.70;;;;;;10060486;28;20419;-65
2022/08/01 05:34:35;;;;;;;3.92;2.00;;;25.20;65.50;;;;;;10085336;28;20033;-64
2022/08/01 05:39:25;;;;;;;2.67;1.95;;;25.40;65.20;;;;;;10078494;28;20025;-65
2022/08/01 05:44:16;;;;;;;3.03;2.30;;;25.30;65.40;;;;;;10063210;28;20025;-64
2022/08/01 05:49:07;;;;;;;3.67;2.28;;;25.10;65.70;;;;;;10056022;28;20041;-64
2022/08/01 05:53:58;;;;;;;4.95;2.90;;;25.10;65.90;;;;;;10068938;28;20029;-63
2022/08/01 05:58:50;;;;;;;5.93;2.50;;;25.00;66.00;;;;;;10077906;28;20037;-64
2022/08/01 06:03:40;;;;;;;3.33;2.35;;;25.00;65.90;;;;;;10062952;28;20150;-64
2022/08/01 06:08:31;;;;;;;4.65;1.92;;;25.10;65.70;;;;;;10083472;28;20344;-64
2022/08/01 06:13:22;;;;;;;3.38;2.08;;;25.20;65.60;;;;;;10075508;28;20049;-64
2022/08/01 06:18:14;;;;;;;4.22;2.20;;;25.40;65.40;;;;;;10061535;28;20224;-64
2022/08/01 06:23:05;;;;;;;3.25;2.13;;;25.50;65.20;;;;;;10065435;28;20075;-65
2022/08/01 06:27:56;;;;;;;2.28;1.92;;;25.50;65.50;;;;;;10061546;28;20037;-66
2022/08/01 06:32:47;;;;;;;2.28;1.70;;;25.50;65.50;;;;;;10069511;28;20523;-65
2022/08/01 06:37:38;;;;;;;1.83;1.60;;;25.50;65.90;;;;;;10057165;28;20022;-66
2022/08/01 06:42:31;;;;;;;2.38;1.33;;;25.70;65.80;;;;;;10068440;28;20045;-66
2022/08/01 06:47:21;;;;;;;5.25;1.83;;;25.60;65.90;;;;;;10065347;28;20024;-65
2022/08/01 06:52:12;;;;;;;3.75;2.03;;;25.70;66.10;;;;;;10066657;28;20105;-66
2022/08/01 06:57:06;;;;;;;6.90;2.15;;;25.90;65.80;;;;;;10068632;28;20030;-66
2022/08/01 07:01:57;;;;;;;4.20;2.42;;;26.00;65.80;;;;;;10059623;28;20028;-64
2022/08/01 07:06:47;;;;;;;6.63;3.13;;;26.00;66.00;;;;;;10061270;28;20154;-65
2022/08/01 07:11:38;;;;;;;3.88;2.47;;;26.20;66.00;;;;;;10061171;28;20030;-65
2022/08/01 07:16:29;;;;;;;3.58;2.60;;;26.10;66.00;;;;;;10067800;28;20033;-61
2022/08/01 07:21:19;;;;;;;4.00;2.55;;;26.30;65.90;;;;;;10059288;28;20056;-65
2022/08/01 07:26:10;;;;;;;3.97;2.67;;;26.50;65.80;;;;;;10073583;28;20117;-65
2022/08/01 07:31:01;;;;;;;3.00;2.38;;;26.50;65.80;;;;;;10068306;28;20083;-66
2022/08/01 07:35:51;;;;;;;4.25;2.33;;;26.60;65.90;;;;;;10077658;28;20328;-66
2022/08/01 07:40:43;;;;;;;3.88;2.38;;;26.70;65.80;;;;;;10060055;28;20206;-67
2022/08/01 07:45:34;;;;;;;3.45;2.15;;;26.80;65.90;;;;;;10069711;28;20026;-68
2022/08/01 07:50:24;;;;;;;3.88;2.05;;;26.80;65.80;;;;;;10058094;28;20056;-68
2022/08/01 07:55:15;;;;;;;3.70;2.05;;;26.80;65.80;;;;;;10059728;28;20032;-66
2022/08/01 08:00:08;;;;;;;5.28;2.22;;;27.00;65.70;;;;;;10077539;28;20186;-65
2022/08/01 08:04:59;;;;;;;3.97;2.28;;;27.00;65.70;;;;;;10060779;28;20037;-64
2022/08/01 08:09:49;;;;;;;4.00;2.45;;;27.00;65.50;;;;;;10064266;28;20187;-64
2022/08/01 08:14:40;;;;;;;2.60;2.00;;;27.00;65.50;;;;;;10067800;28;20041;-68
2022/08/01 08:19:33;;;;;;;2.30;1.85;;;27.10;65.60;;;;;;10053131;28;20041;-63
2022/08/01 08:24:24;;;;;;;2.78;2.50;;;27.20;65.50;;;;;;10069066;28;20083;-65
2022/08/01 08:29:15;;;;;;;3.25;1.77;;;27.30;65.30;;;;;;10066905;28;20087;-65
2022/08/01 08:34:06;;;;;;;3.13;1.88;;;27.40;65.30;;;;;;10062229;28;20101;-66
2022/08/01 08:39:00;;;;;;;4.88;2.83;;;27.50;65.20;;;;;;10051582;28;20104;-68
2022/08/01 08:43:50;;;;;;;2.63;2.37;;;27.40;65.20;;;;;;10069186;28;20029;-65
2022/08/01 08:48:42;;;;;;;4.05;2.67;;;27.50;65.20;;;;;;10075940;28;20048;-66
2022/08/01 08:53:33;;;;;;;4.00;2.20;;;27.80;64.80;;;;;;10084193;28;20033;-66
2022/08/01 08:58:26;;;;;;;3.17;2.13;;;27.60;64.90;;;;;;10075447;28;20029;-66
2022/08/01 09:03:16;;;;;;;2.38;1.75;;;27.70;64.80;;;;;;10066280;28;20014;-64
2022/08/01 09:08:08;;;;;;;3.78;2.05;;;27.70;64.70;;;;;;10041332;28;20030;-62
2022/08/01 09:13:11;;;;;;;3.22;2.15;;;27.80;64.70;;;;;;10077886;28;20272;-62
2022/08/01 09:18:02;;;;;;;3.15;1.80;;;28.00;64.30;;;;;;10061649;28;20045;-63
2022/08/01 09:22:52;;;;;;;5.10;2.35;;;28.00;64.30;;;;;;10065014;28;20040;-63
2022/08/01 09:27:43;;;;;;;2.90;2.25;;;28.10;64.10;;;;;;10062325;28;20303;-64
2022/08/01 09:32:34;;;;;;;2.42;1.70;;;28.50;63.70;;;;;;10063022;28;20341;-67
2022/08/01 09:37:31;;;;;;;5.43;2.30;;;28.50;63.50;;;;;;10056009;28;20013;-64
2022/08/01 09:42:24;;;;;;;3.78;2.58;;;28.60;63.30;;;;;;10064640;28;20029;-64
2022/08/01 09:47:16;;;;;;;3.90;2.05;;;28.70;63.20;;;;;;10068227;28;20041;-63
2022/08/01 09:52:18;;;;;;;3.22;1.95;;;28.90;63.00;;;;;;10068092;28;20060;-66
2022/08/01 09:57:10;;;;;;;3.60;2.03;;;29.30;62.30;;;;;;10065700;28;20099;-66
2022/08/01 10:02:01;;;;;;;10.25;3.17;;;29.30;62.50;;;;;;10066926;28;20037;-62
2022/08/01 10:07:02;;;;;;;2.60;2.15;;;29.60;62.10;;;;;;10066271;28;20030;-65
2022/08/01 10:11:55;;;;;;;6.63;2.67;;;29.70;61.60;;;;;;10058377;28;20150;-62
2022/08/01 10:16:49;;;;;;;3.25;2.25;;;29.60;61.50;;;;;;10064302;28;20565;-60
2022/08/01 10:21:40;;;;;;;2.22;2.03;;;29.50;61.40;;;;;;10072537;28;20019;-61
2022/08/01 10:26:34;;;;;;;2.65;2.10;;;29.30;61.60;;;;;;10046499;28;20136;-63
2022/08/01 10:31:25;;;;;;;2.92;2.00;;;29.30;61.70;;;;;;10062055;28;20029;-63
2022/08/01 10:36:21;;;;;;;2.50;1.77;;;29.00;61.60;;;;;;10059931;28;20381;-63
2022/08/01 10:41:14;;;;;;;2.65;2.25;;;28.80;61.60;;;;;;10052170;28;20470;-62
2022/08/01 10:46:05;;;;;;;3.00;1.90;;;28.80;61.30;;;;;;10046366;28;20059;-62
2022/08/01 10:51:00;;;;;;;4.03;2.33;;;28.90;61.00;;;;;;10062133;28;20584;-62
2022/08/01 10:55:56;;;;;;;2.67;2.22;;;29.40;60.20;;;;;;10047748;28;20034;-61
2022/08/01 11:00:47;;;;;;;2.75;1.90;;;29.80;59.80;;;;;;10050236;28;20040;-67
2022/08/01 11:05:41;;;;;;;4.13;1.95;;;30.20;59.50;;;;;;10048680;28;20030;-65
2022/08/01 11:10:45;;;;;;;3.80;1.95;;;30.30;59.60;;;;;;10054285;28;20033;-65
2022/08/01 11:15:40;;;;;;;3.22;2.03;;;29.80;60.20;;;;;;10053525;28;20102;-66
2022/08/01 11:20:34;;;;;;;3.67;2.97;;;29.40;60.50;;;;;;10044275;28;20017;-65
2022/08/01 11:25:26;;;;;;;3.13;2.83;;;29.10;60.80;;;;;;10049874;28;20096;-66
2022/08/01 11:30:16;;;;;;;3.63;2.58;;;28.80;60.80;;;;;;10050423;28;20389;-66
2022/08/01 11:35:07;;;;;;;2.40;1.85;;;28.80;60.80;;;;;;10049025;28;20033;-66
2022/08/01 11:40:18;;;;;;;1.88;1.73;;;28.80;60.80;;;;;;10050197;28;20029;-66
2022/08/01 11:45:09;;;;;;;3.47;2.00;;;28.90;60.90;;;;;;10048015;28;20431;-65
2022/08/01 11:50:01;;;;;;;3.78;2.05;;;29.50;60.60;;;;;;10036210;28;20046;-63
2022/08/01 11:54:55;;;;;;;2.40;1.90;;;29.60;60.40;;;;;;10049030;28;20440;-61
2022/08/01 11:59:57;;;;;;;3.92;2.00;;;29.60;60.50;;;;;;10038356;28;20672;-62
2022/08/01 12:04:55;;;;;;;3.50;2.20;;;29.60;60.20;;;;;;10041300;28;20091;-65
2022/08/01 12:09:47;;;;;;;4.60;2.20;;;29.70;60.00;;;;;;10049547;28;20535;-61
2022/08/01 12:14:38;;;;;;;2.80;1.92;;;29.70;59.80;;;;;;10048215;28;20515;-62
2022/08/01 12:19:29;;;;;;;4.05;2.33;;;30.20;59.20;;;;;;10045454;28;20108;-62
2022/08/01 12:24:23;;;;;;;2.97;1.80;;;31.30;58.40;;;;;;10052773;28;20123;-62
2022/08/01 12:29:34;;;;;;;2.72;1.95;;;32.10;57.70;;;;;;10036526;28;20557;-61
2022/08/01 12:34:27;;;;;;;4.85;3.15;;;31.30;57.50;;;;;;10043286;28;20467;-62
2022/08/01 12:39:19;;;;;;;2.45;1.60;;;31.00;57.80;;;;;;10045934;28;20052;-61
2022/08/01 12:44:14;;;;;;;4.70;1.85;;;30.70;57.60;;;;;;10038774;28;20074;-61
2022/08/01 12:49:05;;;;;;;3.50;1.80;;;30.60;57.30;;;;;;10032118;28;20431;-62
2022/08/01 12:53:59;;;;;;;1.73;1.52;;;30.90;57.20;;;;;;10047171;28;20183;-64
2022/08/01 12:58:49;;;;;;;3.72;2.15;;;32.20;57.00;;;;;;10061375;28;20036;-64
2022/08/01 13:03:41;;;;;;;2.10;1.88;;;33.10;56.30;;;;;;10059659;28;20063;-69
2022/08/01 13:08:33;;;;;;;2.00;1.80;;;32.10;55.60;;;;;;10073414;28;20020;-67
2022/08/01 13:13:24;;;;;;;4.05;1.73;;;31.20;55.80;;;;;;10073307;28;20064;-67
2022/08/01 13:18:32;;;;;;;2.90;1.38;;;30.90;55.70;;;;;;10075148;28;20041;-67
2022/08/01 13:23:22;;;;;;;1.98;1.27;;;30.40;55.70;;;;;;10054108;28;20057;-66
2022/08/01 13:28:32;;;;;;;2.08;1.90;;;30.50;55.50;;;;;;10057870;28;20021;-66
2022/08/01 13:33:25;;;;;;;1.95;1.00;;;32.30;55.10;;;;;;10076996;28;20384;-67
2022/08/01 13:38:16;;;;;;;2.17;1.38;;;32.70;53.50;;;;;;10056336;28;20079;-67
2022/08/01 13:43:06;;;;;;;4.30;1.38;;;31.60;54.30;;;;;;10064729;28;20030;-66
2022/08/01 13:47:57;;;;;;;1.60;1.40;;;30.90;54.90;;;;;;10056047;28;20033;-66
2022/08/01 13:52:48;;;;;;;2.20;1.23;;;30.30;55.00;;;;;;10077893;28;20030;-66
2022/08/01 13:57:38;;;;;;;3.28;1.60;;;30.30;55.00;;;;;;10068729;28;20021;-66
2022/08/01 14:02:29;;;;;;;2.45;1.13;;;30.50;54.50;;;;;;10073399;28;20021;-66
2022/08/01 14:07:20;;;;;;;4.80;1.33;;;30.50;54.70;;;;;;10078531;28;20025;-67
2022/08/01 14:12:11;;;;;;;3.38;1.20;;;30.60;54.60;;;;;;10068647;28;20060;-68
2022/08/01 14:17:02;;;;;;;2.97;1.40;;;31.20;54.20;;;;;;10064510;28;20378;-66
2022/08/01 14:21:53;;;;;;;1.65;1.30;;;31.50;53.90;;;;;;10074703;28;20080;-66
2022/08/01 14:26:44;;;;;;;5.07;1.60;;;31.40;54.00;;;;;;10059911;28;20079;-68
2022/08/01 14:31:34;;;;;;;2.58;0.90;;;31.30;54.00;;;;;;10061865;28;20061;-66
2022/08/01 14:36:25;;;;;;;2.13;1.13;;;31.20;54.00;;;;;;10059193;28;20032;-66
2022/08/01 14:41:16;;;;;;;3.20;0.95;;;31.70;53.30;;;;;;10064447;28;20034;-68
2022/08/01 14:46:09;;;;;;;2.08;0.90;;;31.60;53.20;;;;;;10058186;28;20032;-63
2022/08/01 14:51:02;;;;;;;;;;;31.80;53.10;;;;;;10047584;28;20329;-64
2022/08/01 14:55:53;;;;;;;1.80;0.90;;;31.80;52.90;;;;;;10055184;28;19913;-63
2022/08/01 15:00:43;;;;;;;1.55;0.82;;;31.80;53.20;;;;;;10056086;28;20088;-66
2022/08/01 15:05:35;;;;;;;1.15;0.70;;;31.60;53.20;;;;;;10042790;28;20113;-63
2022/08/01 15:10:27;;;;;;;3.80;1.17;;;31.10;53.30;;;;;;10070365;28;20032;-64
2022/08/01 15:15:17;;;;;;;1.08;0.60;;;31.10;53.70;;;;;;10060031;28;20045;-64
2022/08/01 15:20:08;;;;;;;2.17;0.77;;;31.30;53.40;;;;;;10039989;28;20076;-63
2022/08/01 15:25:00;;;;;;;3.45;1.35;;;31.50;52.90;;;;;;10053225;28;20033;-66
2022/08/01 15:29:52;;;;;;;1.92;0.90;;;31.10;53.20;;;;;;10051916;28;20038;-64
2022/08/01 15:34:43;;;;;;;2.58;0.70;;;31.40;53.10;;;;;;10061207;28;20089;-66
2022/08/01 15:39:34;;;;;;;1.05;0.88;;;31.20;53.20;;;;;;10056257;28;20296;-65
2022/08/01 15:44:25;;;;;;;0.95;0.80;;;30.50;54.10;;;;;;10059065;28;20037;-64
2022/08/01 15:49:17;;;;;;;0.70;0.70;;;30.20;54.40;;;;;;10062496;28;20216;-67
2022/08/01 15:54:09;;;;;;;0.90;0.80;;;29.90;54.90;;;;;;10057166;28;20083;-65
2022/08/01 15:59:00;;;;;;;2.88;0.80;;;30.00;54.90;;;;;;10057231;28;20026;-63
2022/08/01 16:03:50;;;;;;;1.95;0.68;;;30.40;54.50;;;;;;10052298;28;20025;-67
2022/08/01 16:08:42;;;;;;;0.73;0.60;;;30.50;54.60;;;;;;10067435;28;20180;-65
2022/08/01 16:13:33;;;;;;;1.00;0.65;;;30.90;54.40;;;;;;10065921;28;20379;-65
2022/08/01 16:18:23;;;;;;;0.70;0.60;;;31.00;54.50;;;;;;10059052;28;20042;-65
2022/08/01 16:23:14;;;;;;;0.77;0.63;;;32.40;53.10;;;;;;10060021;28;20209;-65
2022/08/01 16:28:05;;;;;;;1.58;0.80;;;31.60;53.70;;;;;;10053625;28;20297;-63
2022/08/01 16:32:56;;;;;;;1.63;0.90;;;31.20;54.30;;;;;;10054234;28;20025;-60
2022/08/01 16:37:47;;;;;;;2.00;0.77;;;30.30;55.40;;;;;;10064673;28;20029;-61
2022/08/01 16:42:37;;;;;;;0.88;0.80;;;29.90;55.90;;;;;;10065772;28;20238;-61
2022/08/01 16:47:28;;;;;;;1.27;1.17;;;29.60;56.20;;;;;;10059598;28;20025;-61
2022/08/01 16:52:19;;;;;;;1.17;0.80;;;29.40;56.70;;;;;;10045908;28;20483;-61
2022/08/01 16:57:09;;;;;;;1.90;1.13;;;29.50;56.80;;;;;;10040760;28;20052;-61
2022/08/01 17:02:00;;;;;;;2.45;0.85;;;29.40;57.60;;;;;;10050968;28;20047;-61
2022/08/01 17:06:51;;;;;;;1.13;0.70;;;29.10;57.30;;;;;;10060760;28;20492;-61
2022/08/01 17:11:41;;;;;;;0.82;0.70;;;29.00;57.50;;;;;;10069567;28;20029;-61
2022/08/01 17:16:32;;;;;;;0.88;0.70;;;28.80;57.80;;;;;;10064267;28;20386;-60
2022/08/01 17:21:23;;;;;;;0.85;0.60;;;28.60;58.00;;;;;;10068367;28;20102;-60
2022/08/01 17:26:14;;;;;;;1.77;0.90;;;28.70;58.20;;;;;;10058010;28;20047;-60
2022/08/01 17:31:04;;;;;;;1.00;0.77;;;28.60;58.30;;;;;;10062560;28;20033;-61
2022/08/01 17:35:55;;;;;;;1.17;0.77;;;28.40;58.60;;;;;;10070753;28;20041;-62
2022/08/01 17:40:46;;;;;;;1.58;1.15;;;28.30;58.80;;;;;;10071380;28;20037;-60
2022/08/01 17:45:36;;;;;;;2.22;1.27;;;28.30;59.00;;;;;;10070802;28;20301;-63
2022/08/01 17:50:27;;;;;;;3.00;1.10;;;28.50;58.80;;;;;;10069859;28;20035;-61
2022/08/01 17:55:18;;;;;;;0.80;0.80;;;28.70;58.80;;;;;;10071173;28;20040;-60
2022/08/01 18:00:09;;;;;;;1.35;1.10;;;28.70;59.00;;;;;;10070182;28;20189;-62
2022/08/01 18:05:00;;;;;;;3.08;1.00;;;28.70;59.00;;;;;;10071178;28;20037;-60
2022/08/01 18:09:51;;;;;;;3.25;1.38;;;28.40;59.30;;;;;;10068022;28;20034;-60
2022/08/01 18:14:42;;;;;;;1.92;1.20;;;28.40;59.50;;;;;;10069171;28;20037;-63
2022/08/01 18:19:33;;;;;;;3.78;1.77;;;28.40;59.50;;;;;;10062742;28;20417;-60
2022/08/01 18:24:24;;;;;;;1.77;1.27;;;28.30;59.60;;;;;;10072076;28;20044;-59
2022/08/01 18:29:14;;;;;;;2.35;1.05;;;28.20;60.00;;;;;;10069262;28;20038;-61
2022/08/01 18:34:05;;;;;;;1.67;0.82;;;28.10;60.10;;;;;;10066084;28;20063;-60
2022/08/01 18:38:57;;;;;;;1.48;1.13;;;27.90;60.10;;;;;;10067287;28;20030;-60
2022/08/01 18:43:47;;;;;;;2.10;0.95;;;27.70;60.40;;;;;;10066873;28;20060;-61
2022/08/01 18:48:39;;;;;;;0.98;0.80;;;27.60;60.70;;;;;;10059883;28;20448;-61
2022/08/01 18:53:30;;;;;;;2.45;1.27;;;27.50;60.60;;;;;;10066094;28;20101;-59
2022/08/01 18:58:21;;;;;;;2.25;1.17;;;27.30;60.60;;;;;;10069611;28;20014;-59
2022/08/01 19:03:12;;;;;;;1.58;0.90;;;27.30;60.70;;;;;;10075715;28;20348;-61
2022/08/01 19:08:04;;;;;;;1.45;1.13;;;27.20;60.90;;;;;;10056935;28;20166;-62
2022/08/01 19:12:54;;;;;;;1.13;1.00;;;27.10;60.90;;;;;;10075325;28;20101;-61
2022/08/01 19:17:46;;;;;;;4.00;1.20;;;27.00;61.10;;;;;;10074424;28;20013;-60
2022/08/01 19:22:36;;;;;;;2.22;0.90;;;27.00;61.30;;;;;;10052585;28;20021;-61
2022/08/01 19:27:30;;;;;;;1.63;0.85;;;26.90;61.40;;;;;;10069578;28;20041;-59
2022/08/01 19:32:23;;;;;;;5.03;1.43;;;26.80;61.60;;;;;;10054162;28;20099;-61
2022/08/01 19:37:15;;;;;;;1.63;0.75;;;26.80;61.50;;;;;;10069929;28;20033;-63
2022/08/01 19:42:07;;;;;;;1.90;1.00;;;26.80;61.50;;;;;;10064455;28;20305;-62
2022/08/01 19:46:58;;;;;;;3.05;1.20;;;26.70;61.60;;;;;;10066836;28;20109;-60
2022/08/01 19:51:58;;;;;;;1.70;1.10;;;26.80;61.50;;;;;;10057150;28;20074;-62
2022/08/01 19:56:51;;;;;;;1.65;1.20;;;26.90;61.60;;;;;;10068498;28;20022;-64
2022/08/01 20:01:42;;;;;;;2.40;1.13;;;27.00;61.30;;;;;;10064227;28;20070;-62
2022/08/01 20:06:34;;;;;;;1.98;1.20;;;27.00;61.50;;;;;;10052504;28;20022;-62
2022/08/01 20:11:25;;;;;;;2.63;1.05;;;26.80;61.70;;;;;;10060558;28;20345;-63
2022/08/01 20:16:16;;;;;;;2.35;1.00;;;26.60;61.90;;;;;;10066276;28;20045;-63
2022/08/01 20:21:12;;;;;;;2.10;1.15;;;26.80;61.70;;;;;;10062856;28;20021;-62
2022/08/01 20:26:04;;;;;;;2.15;0.88;;;26.60;61.90;;;;;;10056213;28;20017;-61
2022/08/01 20:30:58;;;;;;;1.50;1.00;;;26.50;62.10;;;;;;10051324;28;20328;-62
2022/08/01 20:35:52;;;;;;;1.95;1.15;;;26.40;62.30;;;;;;10069630;28;20018;-63
2022/08/01 20:40:44;;;;;;;2.28;1.15;;;26.30;62.50;;;;;;10074934;28;20118;-61
2022/08/01 20:45:35;;;;;;;2.10;1.08;;;26.20;62.50;;;;;;10058915;28;20018;-62
2022/08/01 20:56:07;;;;;;;1.38;0.93;;;26.20;62.70;;;;;;9989750;28;20233;-60
2022/08/01 21:01:01;;;;;;;1.73;1.17;;;26.10;62.90;;;;;;10051260;28;20079;-62
2022/08/01 21:06:01;;;;;;;1.88;0.80;;;26.00;63.10;;;;;;10062315;28;20107;-61
2022/08/01 21:11:00;;;;;;;4.57;1.13;;;26.10;63.00;;;;;;10060136;28;20079;-58
2022/08/01 21:16:00;;;;;;;1.67;1.10;;;26.00;63.20;;;;;;10066966;28;20099;-58
2022/08/01 21:20:58;;;;;;;1.60;1.30;;;25.90;63.60;;;;;;10075329;28;20045;-60
2022/08/01 21:25:51;;;;;;;2.03;1.08;;;25.80;63.60;;;;;;10066711;28;20116;-61
2022/08/01 21:30:42;;;;;;;1.35;1.00;;;25.70;64.00;;;;;;10058860;28;20458;-60
2022/08/01 21:35:34;;;;;;;2.45;0.90;;;25.60;64.20;;;;;;10058379;28;20044;-64
2022/08/01 21:40:25;;;;;;;4.13;0.93;;;25.50;64.60;;;;;;10064844;28;20022;-58
2022/08/01 21:45:20;;;;;;;3.65;0.98;;;25.50;64.70;;;;;;10062307;28;20052;-58
2022/08/01 21:50:11;;;;;;;3.05;1.00;;;25.40;64.90;;;;;;10045633;28;20045;-60
2022/08/01 21:55:27;;;;;;;2.20;1.10;;;25.30;65.40;;;;;;10047654;28;20018;-58
2022/08/01 22:00:21;;;;;;;1.58;1.00;;;25.30;65.50;;;;;;10045402;28;20287;-60
2022/08/01 22:05:12;;;;;;;2.08;0.85;;;25.30;65.30;;;;;;10040956;28;20854;-59
2022/08/01 22:10:05;;;;;;;1.70;0.98;;;25.30;65.30;;;;;;10042414;28;20045;-59
2022/08/01 22:15:00;;;;;;;2.28;1.17;;;25.20;65.70;;;;;;10039693;28;20614;-62
2022/08/01 22:19:53;;;;;;;1.85;1.10;;;25.20;65.80;;;;;;10041065;28;20034;-60
2022/08/01 22:24:45;;;;;;;1.20;0.80;;;25.00;66.30;;;;;;10026885;28;20308;-59
2022/08/01 22:29:36;;;;;;;2.25;1.05;;;25.10;66.40;;;;;;10038238;28;20041;-61
2022/08/01 22:34:27;;;;;;;2.25;0.80;;;24.90;66.50;;;;;;10041736;28;20095;-59
2022/08/01 22:39:17;;;;;;;1.30;0.85;;;24.90;66.80;;;;;;10031752;28;20029;-60
2022/08/01 22:44:11;;;;;;;2.10;1.02;;;24.80;66.90;;;;;;10033920;28;20204;-57
2022/08/01 22:49:15;;;;;;;1.13;0.70;;;24.80;66.90;;;;;;10039086;28;20029;-59
2022/08/01 22:54:15;;;;;;;2.20;1.35;;;24.90;67.00;;;;;;10036479;28;20022;-60
2022/08/01 22:59:28;;;;;;;1.90;1.10;;;24.80;67.10;;;;;;10059380;28;20091;-58
2022/08/01 23:04:22;;;;;;;1.77;0.90;;;24.90;66.90;;;;;;10070721;28;20043;-58
2022/08/01 23:09:14;;;;;;;4.30;1.27;;;24.90;66.90;;;;;;10046235;28;20049;-60
2022/08/01 23:14:05;;;;;;;3.65;1.13;;;24.90;67.10;;;;;;10060163;28;20064;-58
2022/08/01 23:19:00;;;;;;;3.22;1.05;;;24.80;67.20;;;;;;10058076;28;20067;-59
2022/08/01 23:23:51;;;;;;;;;;;24.90;67.30;;;;;;10066052;28;20033;-58
2022/08/01 23:28:42;;;;;;;1.60;1.05;;;24.80;67.30;;;;;;10053335;28;19919;-61
2022/08/01 23:33:33;;;;;;;1.25;0.90;;;24.70;67.50;;;;;;10064894;28;20033;-60
2022/08/01 23:38:24;;;;;;;2.90;0.95;;;24.70;67.50;;;;;;10059440;28;20116;-60
2022/08/01 23:43:14;;;;;;;2.17;1.10;;;24.70;67.90;;;;;;10060929;28;20248;-58
2022/08/01 23:48:05;;;;;;;2.78;1.48;;;24.60;68.80;;;;;;10060669;28;20025;-59
2022/08/01 23:52:56;;;;;;;2.55;1.20;;;24.50;69.60;;;;;;10048606;28;20083;-59
2022/08/01 23:57:48;;;;;;;1.38;1.13;;;24.50;70.60;;;;;;10067618;28;20033;-58
